createdAt,value
2022-11-29T00:00:03.187Z,8.2
2022-11-29T00:05:00.174Z,8.2
2022-11-29T00:10:00.279Z,8.2
2022-11-29T00:15:00.248Z,8.2
2022-11-29T00:20:00.317Z,8.2
2022-11-29T00:25:00.190Z,8.2
2022-11-29T00:30:00.214Z,8.2
2022-11-29T00:35:03.972Z,8.2
2022-11-29T00:40:00.197Z,8.2
2022-11-29T00:45:00.173Z,8.2
2022-11-29T00:50:00.157Z,8.2
2022-11-29T00:55:00.250Z,8.2
2022-11-29T01:00:00.367Z,8.2
2022-11-29T01:05:00.265Z,8.3
2022-11-29T01:10:00.268Z,8.2
2022-11-29T01:15:00.245Z,8.3
2022-11-29T01:20:00.211Z,8.3
2022-11-29T01:25:00.381Z,8.3
2022-11-29T01:30:00.174Z,8.3
2022-11-29T01:35:00.192Z,8.3
2022-11-29T01:40:00.283Z,8.3
2022-11-29T01:45:00.246Z,8.3
2022-11-29T01:50:00.235Z,8.3
2022-11-29T01:55:00.247Z,8.3
2022-11-29T02:00:00.313Z,8.3
2022-11-29T02:05:00.264Z,8.4
2022-11-29T02:10:00.221Z,8.3
2022-11-29T02:15:00.255Z,8.3
2022-11-29T02:20:00.221Z,8.3
2022-11-29T02:25:00.165Z,8.3
2022-11-29T02:30:00.233Z,8.4
2022-11-29T02:35:00.177Z,8.3
2022-11-29T02:40:00.215Z,8.3
2022-11-29T02:45:00.195Z,8.3
2022-11-29T02:50:00.237Z,8.3
2022-11-29T02:55:00.239Z,8.3
2022-11-29T03:00:00.314Z,8.3
2022-11-29T03:05:00.218Z,8.3
2022-11-29T03:10:00.170Z,8.3
2022-11-29T03:15:00.256Z,8.3
2022-11-29T03:20:00.265Z,8.3
2022-11-29T03:25:00.185Z,8.3
2022-11-29T03:30:00.271Z,8.3
2022-11-29T03:35:00.238Z,8.3
2022-11-29T03:40:00.245Z,8.3
2022-11-29T03:45:00.275Z,8.3
2022-11-29T03:50:00.276Z,8.3
2022-11-29T03:55:00.272Z,8.3
2022-11-29T04:00:00.260Z,8.3
2022-11-29T04:05:00.249Z,8.3
2022-11-29T04:10:00.253Z,8.3
2022-11-29T04:15:00.296Z,8.3
2022-11-29T04:20:00.271Z,8.3
2022-11-29T04:25:00.275Z,8.3
2022-11-29T04:30:00.310Z,8.3
2022-11-29T04:35:00.257Z,8.3
2022-11-29T04:40:00.277Z,8.3
2022-11-29T04:45:00.255Z,8.3
2022-11-29T04:50:00.250Z,8.3
2022-11-29T04:55:00.231Z,8.3
2022-11-29T05:00:00.347Z,8.3
2022-11-29T05:05:00.312Z,8.3
2022-11-29T05:10:00.235Z,8.3
2022-11-29T05:15:00.328Z,8.3
2022-11-29T05:20:00.322Z,8.3
2022-11-29T05:25:00.272Z,8.3
2022-11-29T05:30:00.288Z,8.3
2022-11-29T05:35:00.310Z,8.3
2022-11-29T05:40:00.278Z,8.3
2022-11-29T05:45:00.221Z,8.3
2022-11-29T05:50:00.238Z,8.3
2022-11-29T05:55:00.223Z,8.3
2022-11-29T06:00:00.231Z,8.3
2022-11-29T06:05:00.247Z,8.3
2022-11-29T06:10:01.894Z,8.3
2022-11-29T06:15:00.237Z,8.3
2022-11-29T06:20:00.298Z,8.3
2022-11-29T06:25:00.255Z,8.3
2022-11-29T06:30:00.285Z,8.3
2022-11-29T06:35:00.238Z,8.3
2022-11-29T06:40:00.292Z,8.3
2022-11-29T06:45:00.311Z,8.3
2022-11-29T06:50:00.206Z,8.3
2022-11-29T06:55:00.216Z,8.3
2022-11-29T07:00:00.369Z,8.3
2022-11-29T07:05:00.257Z,8.2
2022-11-29T07:10:00.293Z,8.2
2022-11-29T07:15:00.268Z,8.2
2022-11-29T07:20:00.305Z,8.2
2022-11-29T07:25:00.223Z,8.2
2022-11-29T07:30:00.284Z,8.2
2022-11-29T07:35:00.210Z,8.2
2022-11-29T07:40:00.313Z,8.2
2022-11-29T07:45:00.294Z,8.2
2022-11-29T07:50:00.248Z,8.2
2022-11-29T07:55:00.242Z,8.2
2022-11-29T08:00:00.347Z,8.2
2022-11-29T08:05:00.302Z,8.2
2022-11-29T08:10:00.235Z,8.2
2022-11-29T08:15:00.230Z,8.2
2022-11-29T08:20:04.012Z,8.2
2022-11-29T08:25:00.275Z,8.2
2022-11-29T08:30:00.283Z,8.2
2022-11-29T08:35:00.240Z,8.2
2022-11-29T08:40:00.360Z,8.2
2022-11-29T08:45:00.571Z,8.2
2022-11-29T08:50:00.291Z,8.2
2022-11-29T08:55:03.104Z,8.2
2022-11-29T09:00:00.412Z,8.2
2022-11-29T09:05:00.300Z,8.2
2022-11-29T09:10:00.257Z,8.2
2022-11-29T09:15:00.252Z,8.3
2022-11-29T09:20:00.413Z,8.3
2022-11-29T09:25:00.274Z,8.3
2022-11-29T09:30:00.288Z,8.3
2022-11-29T09:35:00.287Z,8.4
2022-11-29T09:40:00.271Z,8.4
2022-11-29T09:45:00.246Z,8.4
2022-11-29T09:50:00.497Z,8.4
2022-11-29T09:55:00.297Z,8.4
2022-11-29T10:00:00.336Z,8.4
2022-11-29T10:05:00.234Z,8.4
2022-11-29T10:10:00.242Z,8.5
2022-11-29T10:15:00.256Z,8.5
2022-11-29T10:20:00.326Z,8.5
2022-11-29T10:25:00.273Z,8.5
2022-11-29T10:30:00.341Z,8.6
2022-11-29T10:35:00.282Z,8.5
2022-11-29T10:40:00.269Z,8.5
2022-11-29T10:45:00.225Z,8.6
2022-11-29T10:50:00.348Z,8.6
2022-11-29T10:55:00.238Z,8.6
2022-11-29T11:00:00.359Z,8.7
2022-11-29T11:05:00.302Z,8.7
2022-11-29T11:10:00.290Z,8.7
2022-11-29T11:15:00.321Z,8.7
2022-11-29T11:20:00.308Z,8.8
2022-11-29T11:25:00.252Z,8.8
2022-11-29T11:30:00.254Z,8.8
2022-11-29T11:35:00.408Z,8.8
2022-11-29T11:40:00.459Z,8.8
2022-11-29T11:45:00.717Z,8.8
2022-11-29T11:50:00.253Z,8.9
2022-11-29T11:55:00.268Z,8.9
2022-11-29T12:00:06.304Z,8.9
2022-11-29T12:05:00.304Z,8.9
2022-11-29T12:10:00.309Z,8.9
2022-11-29T12:15:00.271Z,8.9
2022-11-29T12:20:00.301Z,8.9
2022-11-29T12:25:00.238Z,8.9
2022-11-29T12:30:00.334Z,9
2022-11-29T12:35:00.307Z,8.9
2022-11-29T12:40:00.377Z,9
2022-11-29T12:45:00.259Z,8.9
2022-11-29T12:50:00.217Z,8.9
2022-11-29T12:55:00.314Z,8.9
2022-11-29T13:00:00.376Z,8.9
2022-11-29T13:05:00.416Z,8.9
2022-11-29T13:10:00.256Z,8.9
2022-11-29T13:15:00.700Z,8.9
2022-11-29T13:20:00.231Z,8.9
2022-11-29T13:25:00.222Z,8.9
2022-11-29T13:30:00.236Z,8.8
2022-11-29T13:35:00.314Z,8.8
2022-11-29T13:40:00.342Z,8.8
2022-11-29T13:45:00.281Z,8.8
2022-11-29T13:50:00.255Z,8.8
2022-11-29T13:55:00.274Z,8.8
2022-11-29T14:00:00.371Z,8.8
2022-11-29T14:05:00.237Z,8.8
2022-11-29T14:10:00.249Z,8.8
2022-11-29T14:15:00.256Z,8.8
2022-11-29T14:20:00.252Z,8.8
2022-11-29T14:25:00.251Z,8.8
2022-11-29T14:30:00.316Z,8.8
2022-11-29T14:35:00.281Z,8.8
2022-11-29T14:40:00.294Z,8.7
2022-11-29T14:45:00.265Z,8.7
2022-11-29T14:50:00.261Z,8.7
2022-11-29T14:55:00.306Z,8.7
2022-11-29T15:00:00.382Z,8.7
2022-11-29T15:05:00.253Z,8.7
2022-11-29T15:10:00.272Z,8.7
2022-11-29T15:15:00.221Z,8.7
2022-11-29T15:20:00.335Z,8.7
2022-11-29T15:25:00.312Z,8.7
2022-11-29T15:30:00.299Z,8.7
2022-11-29T15:35:00.272Z,8.7
2022-11-29T15:40:00.461Z,8.7
2022-11-29T15:45:00.299Z,8.7
2022-11-29T15:50:00.328Z,8.7
2022-11-29T15:55:00.261Z,8.7
2022-11-29T16:00:00.443Z,8.7
2022-11-29T16:05:00.254Z,8.7
2022-11-29T16:10:00.313Z,8.7
2022-11-29T16:15:00.315Z,8.7
2022-11-29T16:20:00.394Z,8.7
2022-11-29T16:25:00.314Z,8.7
2022-11-29T16:30:00.401Z,8.7
2022-11-29T16:35:00.233Z,8.7
2022-11-29T16:40:00.285Z,8.7
2022-11-29T16:45:00.302Z,8.7
2022-11-29T16:50:00.202Z,8.7
2022-11-29T16:55:00.298Z,8.6
2022-11-29T17:00:00.338Z,8.7
2022-11-29T17:05:00.245Z,8.6
2022-11-29T17:10:00.320Z,8.6
2022-11-29T17:15:00.425Z,8.6
2022-11-29T17:20:00.319Z,8.6
2022-11-29T17:25:00.256Z,8.6
2022-11-29T17:30:00.262Z,8.6
2022-11-29T17:35:00.258Z,8.6
2022-11-29T17:40:00.325Z,8.6
2022-11-29T17:45:00.240Z,8.6
2022-11-29T17:50:00.253Z,8.6
2022-11-29T17:55:00.248Z,8.6
2022-11-29T18:00:00.347Z,8.5
2022-11-29T18:05:00.274Z,8.5
2022-11-29T18:10:00.272Z,8.5
2022-11-29T18:15:00.293Z,8.5
2022-11-29T18:20:00.321Z,8.5
2022-11-29T18:25:22.782Z,8.4
2022-11-29T18:30:00.289Z,8.4
2022-11-29T18:35:00.276Z,8.4
2022-11-29T18:40:00.265Z,8.4
2022-11-29T18:45:00.292Z,8.4
2022-11-29T18:50:00.240Z,8.4
2022-11-29T18:55:00.255Z,8.4
2022-11-29T19:00:00.391Z,8.4
2022-11-29T19:05:00.232Z,8.4
2022-11-29T19:10:00.236Z,8.4
2022-11-29T19:15:00.235Z,8.4
2022-11-29T19:20:00.310Z,8.4
2022-11-29T19:25:00.224Z,8.4
2022-11-29T19:30:00.582Z,8.4
2022-11-29T19:35:00.256Z,8.4
2022-11-29T19:40:00.255Z,8.4
2022-11-29T19:45:16.480Z,8.4
2022-11-29T19:50:02.514Z,8.4
2022-11-29T19:55:00.247Z,8.4
2022-11-29T20:00:00.320Z,8.3
2022-11-29T20:05:00.225Z,8.3
2022-11-29T20:10:00.534Z,8.3
2022-11-29T20:15:01.162Z,8.3
2022-11-29T20:20:00.470Z,8.3
2022-11-29T20:25:00.263Z,8.3
2022-11-29T20:30:00.267Z,8.3
2022-11-29T20:35:00.253Z,8.2
2022-11-29T20:40:00.290Z,8.2
2022-11-29T20:45:00.285Z,8.2
2022-11-29T20:50:00.255Z,8.2
2022-11-29T20:55:00.266Z,8.1
2022-11-29T21:00:00.356Z,8.1
2022-11-29T21:05:00.227Z,8.1
2022-11-29T21:10:01.697Z,8
2022-11-29T21:15:00.232Z,8.1
2022-11-29T21:20:00.251Z,8.1
2022-11-29T21:25:00.301Z,8.1
2022-11-29T21:30:00.297Z,8.1
2022-11-29T21:35:00.268Z,8.1
2022-11-29T21:40:00.294Z,8.1
2022-11-29T21:45:00.246Z,8.1
2022-11-29T21:50:00.282Z,8.1
2022-11-29T21:55:00.250Z,8.1
2022-11-29T22:00:00.352Z,8.1
2022-11-29T22:05:00.264Z,8.1
2022-11-29T22:10:00.160Z,8.1
2022-11-29T22:15:00.247Z,8.1
2022-11-29T22:20:00.208Z,8.1
2022-11-29T22:25:00.164Z,8.1
2022-11-29T22:30:00.256Z,8.1
2022-11-29T22:35:00.251Z,8.1
2022-11-29T22:40:00.261Z,8.1
2022-11-29T22:45:00.283Z,8.1
2022-11-29T22:50:00.164Z,8.1
2022-11-29T22:55:04.847Z,8.1
2022-11-29T23:00:00.408Z,8.1
2022-11-29T23:05:00.274Z,8.1
2022-11-29T23:10:00.235Z,8.1
2022-11-29T23:15:00.259Z,8.1
2022-11-29T23:20:00.292Z,8.1
2022-11-29T23:25:00.259Z,8.1
2022-11-29T23:30:00.256Z,8.1
2022-11-29T23:35:00.252Z,8.1
2022-11-29T23:40:00.211Z,8.1
2022-11-29T23:45:00.234Z,8.1
2022-11-29T23:50:00.176Z,8.1
2022-11-29T23:55:00.280Z,8.2
